Time;durP1;ratioP1;P1;durP2;ratioP2;P2;SDS_P1;SDS_P2;PMS_P1;PMS_P2;Temp;Humidity;BMP_temperature;BMP_pressure;BME280_temperature;BME280_humidity;BME280_pressure;Samples;Min_cycle;Max_cycle;Signal;HPM_P1;HPM_P2
2023/06/06 00:00:18;;;;;;;;;;;;;;;11.05;82.68;102085.66;5002474;28;19921;-75
2023/06/06 00:02:44;;;;;;;;;;;;;;;11.01;82.55;102085.28;4997434;28;19921;-76
2023/06/06 00:05:14;;;;;;;;;;;;;;;11.08;82.81;102080.59;5004967;28;20398;-77
2023/06/06 00:07:40;;;;;;;;;;;;;;;11.07;83.15;102080.84;4990256;28;19925;-75
2023/06/06 00:10:10;;;;;;;;;;;;;;;11.04;83.01;102078.63;4991894;28;20409;-76
2023/06/06 00:12:41;;;;;;;;;;;;;;;10.93;83.14;102077.66;5007387;28;19939;-76
2023/06/06 00:15:07;;;;;;;;;;;;;;;10.86;83.40;102076.97;4992213;28;20456;-77
2023/06/06 00:17:32;;;;;;;;;;;;;;;10.77;83.52;102071.19;5020180;28;19932;-76
2023/06/06 00:19:58;;;;;;;;;;;;;;;10.71;83.83;102069.47;4998845;28;19921;-77
2023/06/06 00:22:24;;;;;;;;;;;;;;;10.67;84.28;102070.97;4984800;28;20015;-75
2023/06/06 00:24:51;;;;;;;;;;;;;;;10.72;84.31;102070.25;4984398;28;19922;-76
2023/06/06 00:27:16;;;;;;;;;;;;;;;10.81;84.21;102074.19;4998723;28;19928;-75
2023/06/06 00:29:57;;;;;;;;;;;;;;;10.85;84.26;102078.84;5003785;28;19924;-78
2023/06/06 00:32:23;;;;;;;;;;;;;;;10.73;84.34;102071.88;4995760;28;20393;-77
2023/06/06 00:34:48;;;;;;;;;;;;;;;10.61;84.71;102072.72;5009395;28;19924;-78
2023/06/06 00:37:15;;;;;;;;;;;;;;;10.55;84.73;102065.63;4993708;28;19932;-77
2023/06/06 00:39:40;;;;;;;;;;;;;;;10.46;85.46;102056.34;4992689;28;19968;-77
2023/06/06 00:42:06;;;;;;;;;;;;;;;10.57;86.04;102060.88;4994665;28;20448;-77
2023/06/06 00:44:32;;;;;;;;;;;;;;;10.63;85.56;102062.59;4977006;28;19928;-77
2023/06/06 00:46:57;;;;;;;;;;;;;;;10.54;85.89;102072.03;4982578;28;19921;-77
2023/06/06 00:49:23;;;;;;;;;;;;;;;10.44;85.90;102066.50;4969216;28;19924;-78
2023/06/06 00:51:49;;;;;;;;;;;;;;;10.42;85.85;102065.09;4990753;28;19921;-77
2023/06/06 00:54:15;;;;;;;;;;;;;;;10.41;86.92;102064.28;4969944;28;19991;-76
2023/06/06 00:56:43;;;;;;;;;;;;;;;10.40;86.99;102065.31;5003974;28;19956;-75
2023/06/06 00:59:10;;;;;;;;;;;;;;;10.35;86.89;102063.34;5005984;28;19971;-78
2023/06/06 01:01:38;;;;;;;;;;;;;;;10.30;87.14;102057.91;4988365;28;19921;-76
2023/06/06 01:04:08;;;;;;;;;;;;;;;10.40;87.00;102070.69;5000361;28;19979;-75
2023/06/06 01:06:36;;;;;;;;;;;;;;;10.45;86.99;102065.44;4995965;28;19917;-77
2023/06/06 01:09:05;;;;;;;;;;;;;;;10.40;86.87;102068.00;4993492;28;19925;-76
2023/06/06 01:11:39;;;;;;;;;;;;;;;10.43;86.63;102064.03;4992837;28;19917;-76
2023/06/06 01:14:16;;;;;;;;;;;;;;;10.27;87.09;102061.03;5014003;28;20386;-76
2023/06/06 01:16:42;;;;;;;;;;;;;;;10.36;87.18;102056.13;4995020;28;20016;-75
2023/06/06 01:19:11;;;;;;;;;;;;;;;10.28;87.76;102059.97;4996323;28;19952;-76
2023/06/06 01:21:44;;;;;;;;;;;;;;;10.26;87.55;102059.41;5004886;28;19921;-76
2023/06/06 01:24:10;;;;;;;;;;;;;;;10.32;87.62;102063.03;5009219;28;19928;-76
2023/06/06 01:26:35;;;;;;;;;;;;;;;10.31;87.73;102061.41;4997146;28;19921;-76
2023/06/06 01:29:01;;;;;;;;;;;;;;;10.27;87.59;102055.69;4998287;28;19925;-75
2023/06/06 01:31:32;;;;;;;;;;;;;;;10.26;87.61;102056.72;4994510;28;19920;-76
2023/06/06 01:34:01;;;;;;;;;;;;;;;10.24;87.74;102068.75;5013348;28;20386;-75
2023/06/06 01:36:50;;;;;;;;;;;;;;;10.20;88.20;102073.69;4997935;28;19922;-76
2023/06/06 01:39:18;;;;;;;;;;;;;;;10.15;88.34;102057.53;5007191;28;19921;-76
2023/06/06 01:41:45;;;;;;;;;;;;;;;10.10;88.20;102076.97;4998724;28;20413;-77
2023/06/06 01:44:15;;;;;;;;;;;;;;;10.08;88.52;102070.22;5004126;28;19921;-77
2023/06/06 01:46:41;;;;;;;;;;;;;;;10.03;88.73;102067.44;5031800;28;19975;-76
2023/06/06 01:49:07;;;;;;;;;;;;;;;9.95;88.69;102060.56;5040557;28;19921;-76
2023/06/06 01:51:34;;;;;;;;;;;;;;;9.98;89.24;102068.13;4998570;28;19967;-76
2023/06/06 01:54:01;;;;;;;;;;;;;;;9.98;89.10;102062.78;5015984;28;20293;-76
2023/06/06 01:56:27;;;;;;;;;;;;;;;10.06;89.00;102065.09;5020105;28;19928;-76
2023/06/06 01:58:53;;;;;;;;;;;;;;;9.98;89.42;102065.47;5017059;28;19921;-77
2023/06/06 02:01:20;;;;;;;;;;;;;;;9.93;89.69;102069.88;4982844;28;19917;-76
2023/06/06 02:03:46;;;;;;;;;;;;;;;9.83;89.94;102062.44;4992352;28;20022;-76
2023/06/06 02:06:12;;;;;;;;;;;;;;;9.77;90.01;102047.31;4972660;28;20013;-76
2023/06/06 02:08:41;;;;;;;;;;;;;;;9.76;90.54;102048.38;4979697;28;19925;-75
2023/06/06 02:11:07;;;;;;;;;;;;;;;9.71;90.87;102056.25;5014770;28;20002;-77
2023/06/06 02:13:32;;;;;;;;;;;;;;;9.78;90.59;102054.28;4999770;28;20337;-76
2023/06/06 02:15:58;;;;;;;;;;;;;;;9.73;90.87;102062.19;5009037;28;19921;-75
2023/06/06 02:18:24;;;;;;;;;;;;;;;9.79;90.74;102062.06;4978999;28;19921;-75
2023/06/06 02:20:50;;;;;;;;;;;;;;;9.73;90.76;102062.19;5013661;28;20362;-77
2023/06/06 02:23:17;;;;;;;;;;;;;;;9.79;91.27;102069.28;4985708;28;19989;-76
2023/06/06 02:25:43;;;;;;;;;;;;;;;9.84;91.08;102062.19;5012490;28;20340;-76
2023/06/06 02:28:14;;;;;;;;;;;;;;;9.72;91.39;102064.06;4981183;28;19929;-77
2023/06/06 02:30:39;;;;;;;;;;;;;;;9.65;90.94;102059.84;5037032;28;19928;-77
2023/06/06 02:33:06;;;;;;;;;;;;;;;9.57;91.33;102053.81;4982368;28;19921;-76
2023/06/06 02:35:33;;;;;;;;;;;;;;;9.64;91.09;102058.22;4988923;28;19921;-77
2023/06/06 02:37:59;;;;;;;;;;;;;;;9.56;91.25;102057.53;4995537;28;20080;-77
2023/06/06 02:40:25;;;;;;;;;;;;;;;9.58;91.10;102063.47;4971020;28;20374;-76
2023/06/06 02:42:50;;;;;;;;;;;;;;;9.63;90.78;102064.63;5013423;28;19928;-77
2023/06/06 02:45:16;;;;;;;;;;;;;;;9.61;90.84;102058.69;5001891;28;19928;-76
2023/06/06 02:47:42;;;;;;;;;;;;;;;9.58;91.07;102059.97;4987983;28;19970;-77
2023/06/06 02:50:08;;;;;;;;;;;;;;;9.55;91.31;102066.59;5011774;28;19928;-77
2023/06/06 02:52:35;;;;;;;;;;;;;;;9.60;91.28;102062.41;4992367;28;19918;-77
2023/06/06 02:55:01;;;;;;;;;;;;;;;9.55;91.41;102069.28;4995302;28;19925;-77
2023/06/06 02:57:27;;;;;;;;;;;;;;;9.52;91.43;102072.41;4975949;28;20170;-75
2023/06/06 02:59:53;;;;;;;;;;;;;;;9.49;91.64;102069.38;4993390;28;20455;-78
2023/06/06 03:02:19;;;;;;;;;;;;;;;9.46;91.98;102070.63;4993790;28;19917;-77
2023/06/06 03:04:45;;;;;;;;;;;;;;;9.48;92.01;102068.56;4988194;28;19921;-77
2023/06/06 03:07:11;;;;;;;;;;;;;;;9.60;92.49;102073.91;4992927;28;19921;-76
2023/06/06 03:09:37;;;;;;;;;;;;;;;9.64;92.65;102068.94;4991234;28;19925;-76
2023/06/06 03:12:07;;;;;;;;;;;;;;;9.59;92.78;102072.28;4989875;28;19941;-77
2023/06/06 03:14:33;;;;;;;;;;;;;;;9.55;92.76;102071.94;4975975;28;19921;-76
2023/06/06 03:16:59;;;;;;;;;;;;;;;9.71;92.90;102064.28;4979289;28;19917;-76
2023/06/06 03:19:26;;;;;;;;;;;;;;;9.74;93.01;102074.50;4995813;28;20412;-76
2023/06/06 03:21:54;;;;;;;;;;;;;;;9.72;93.12;102072.06;4994839;28;19921;-76
2023/06/06 03:24:20;;;;;;;;;;;;;;;9.73;92.75;102068.34;4991745;28;19921;-76
2023/06/06 03:26:46;;;;;;;;;;;;;;;9.78;93.17;102065.81;5000771;28;20382;-77
2023/06/06 03:29:14;;;;;;;;;;;;;;;9.85;93.17;102063.81;4983203;28;19940;-76
2023/06/06 03:31:41;;;;;;;;;;;;;;;9.92;93.23;102065.56;4988395;28;19921;-76
2023/06/06 03:34:07;;;;;;;;;;;;;;;10.09;92.84;102066.47;5007517;28;19929;-77
2023/06/06 03:36:35;;;;;;;;;;;;;;;10.15;92.54;102072.78;4986551;28;20330;-76
2023/06/06 03:39:03;;;;;;;;;;;;;;;10.22;92.33;102060.88;4984521;28;20022;-77
2023/06/06 03:41:32;;;;;;;;;;;;;;;10.32;92.22;102063.84;5027490;28;19917;-79
2023/06/06 03:44:01;;;;;;;;;;;;;;;10.33;92.09;102064.63;4967445;28;19926;-78
2023/06/06 03:46:27;;;;;;;;;;;;;;;10.37;92.00;102074.66;4997734;28;19921;-77
2023/06/06 03:48:53;;;;;;;;;;;;;;;10.36;92.11;102067.69;4983064;28;19949;-77
2023/06/06 03:51:19;;;;;;;;;;;;;;;10.46;92.23;102066.25;4986152;28;19925;-77
2023/06/06 03:53:45;;;;;;;;;;;;;;;10.40;92.29;102065.31;4988415;28;19928;-76
2023/06/06 03:56:11;;;;;;;;;;;;;;;10.45;92.31;102070.78;4997649;28;19925;-77
2023/06/06 03:58:36;;;;;;;;;;;;;;;10.49;92.30;102071.13;5007931;28;19917;-77
2023/06/06 04:01:02;;;;;;;;;;;;;;;10.59;92.26;102072.16;5005491;28;19921;-77
2023/06/06 04:03:36;;;;;;;;;;;;;;;10.63;92.22;102067.13;5002128;28;20003;-78
2023/06/06 04:06:04;;;;;;;;;;;;;;;10.73;91.80;102082.59;5004190;28;20270;-76
2023/06/06 04:08:30;;;;;;;;;;;;;;;10.75;91.92;102080.50;4990127;28;19933;-77
2023/06/06 04:10:56;;;;;;;;;;;;;;;10.85;91.68;102078.03;4996069;28;19921;-77
2023/06/06 04:13:22;;;;;;;;;;;;;;;10.96;91.35;102077.16;5000512;28;19925;-76
2023/06/06 04:15:48;;;;;;;;;;;;;;;11.02;91.28;102078.88;5001814;28;20390;-77
2023/06/06 04:18:13;;;;;;;;;;;;;;;11.12;90.71;102076.41;4991261;28;19991;-78
2023/06/06 04:20:39;;;;;;;;;;;;;;;11.18;90.74;102080.81;5002466;28;19921;-77
2023/06/06 04:23:05;;;;;;;;;;;;;;;11.24;90.25;102076.31;5001964;28;20052;-76
2023/06/06 04:25:31;;;;;;;;;;;;;;;11.33;90.04;102080.25;5001654;28;19925;-77
2023/06/06 04:27:56;;;;;;;;;;;;;;;11.44;89.67;102078.53;4989630;28;19925;-76
2023/06/06 04:30:23;;;;;;;;;;;;;;;11.46;89.82;102076.44;4988713;28;19925;-76
2023/06/06 04:32:51;;;;;;;;;;;;;;;11.50;89.76;102072.19;4999392;28;20004;-77
2023/06/06 04:35:17;;;;;;;;;;;;;;;11.51;89.79;102073.00;4988515;28;20369;-77
2023/06/06 04:37:43;;;;;;;;;;;;;;;11.61;89.28;102082.06;4996538;28;19921;-76
2023/06/06 04:40:10;;;;;;;;;;;;;;;11.72;88.99;102075.81;4994822;28;19928;-76
2023/06/06 04:42:36;;;;;;;;;;;;;;;11.85;88.45;102068.50;5013449;28;20351;-77
2023/06/06 04:45:03;;;;;;;;;;;;;;;12.04;88.04;102072.53;4993215;28;20003;-76
2023/06/06 04:47:32;;;;;;;;;;;;;;;12.09;88.01;102069.94;5004148;28;20469;-77
2023/06/06 04:49:58;;;;;;;;;;;;;;;12.20;87.38;102066.34;4992436;28;20012;-77
2023/06/06 04:52:28;;;;;;;;;;;;;;;12.36;85.46;102063.84;4999680;28;19975;-77
2023/06/06 04:54:57;;;;;;;;;;;;;;;12.38;85.90;102067.09;5009971;28;19921;-78
2023/06/06 04:57:23;;;;;;;;;;;;;;;12.45;85.12;102059.66;5012391;28;19947;-77
2023/06/06 04:59:52;;;;;;;;;;;;;;;12.64;84.17;102066.34;5010188;28;19928;-78
2023/06/06 05:02:20;;;;;;;;;;;;;;;12.87;80.40;102069.81;4994795;28;19972;-76
2023/06/06 05:04:50;;;;;;;;;;;;;;;12.99;80.90;102059.72;4988112;28;19961;-78
2023/06/06 05:07:16;;;;;;;;;;;;;;;13.13;79.68;102055.56;4992000;28;20066;-77
2023/06/06 05:09:41;;;;;;;;;;;;;;;13.21;78.67;102060.53;5006603;28;19925;-76
2023/06/06 05:12:09;;;;;;;;;;;;;;;13.30;79.04;102066.25;4994171;28;19975;-76
2023/06/06 05:14:35;;;;;;;;;;;;;;;13.35;79.09;102066.31;5008217;28;19921;-76
2023/06/06 05:17:01;;;;;;;;;;;;;;;13.38;78.25;102066.59;5010607;28;20251;-77
2023/06/06 05:19:26;;;;;;;;;;;;;;;13.63;77.23;102067.88;4986344;28;19918;-75
2023/06/06 05:21:52;;;;;;;;;;;;;;;13.66;76.87;102065.47;5006577;28;19952;-77
2023/06/06 05:24:17;;;;;;;;;;;;;;;13.81;76.19;102067.44;5006000;28;19999;-78
2023/06/06 05:26:43;;;;;;;;;;;;;;;14.05;74.08;102067.09;4984170;28;20309;-77
2023/06/06 05:29:09;;;;;;;;;;;;;;;14.10;75.13;102067.13;4997517;28;19925;-77
2023/06/06 05:31:35;;;;;;;;;;;;;;;14.22;75.80;102070.41;5004419;28;19928;-77
2023/06/06 05:34:01;;;;;;;;;;;;;;;14.23;74.62;102069.34;4985755;28;19932;-77
2023/06/06 05:36:27;;;;;;;;;;;;;;;14.40;73.49;102066.44;5000431;28;19928;-77
2023/06/06 05:38:53;;;;;;;;;;;;;;;14.54;74.07;102070.31;5029467;28;19925;-78
2023/06/06 05:41:19;;;;;;;;;;;;;;;14.64;72.86;102067.66;5010766;28;20254;-76
2023/06/06 05:43:46;;;;;;;;;;;;;;;14.83;71.22;102069.88;5008064;28;19921;-76
2023/06/06 05:46:12;;;;;;;;;;;;;;;14.97;70.68;102069.13;5011020;28;20386;-77
2023/06/06 05:48:38;;;;;;;;;;;;;;;15.19;69.45;102073.47;5000502;28;19925;-76
2023/06/06 05:51:04;;;;;;;;;;;;;;;15.30;69.62;102064.28;5015533;28;19971;-76
2023/06/06 05:53:30;;;;;;;;;;;;;;;15.45;68.23;102064.31;4995372;28;20670;-76
2023/06/06 05:55:56;;;;;;;;;;;;;;;15.62;70.61;102065.94;5009965;28;19944;-77
2023/06/06 05:58:21;;;;;;;;;;;;;;;15.77;68.08;102063.22;4995487;28;19975;-76
2023/06/06 06:00:47;;;;;;;;;;;;;;;15.94;66.71;102069.16;5011459;28;19917;-77
2023/06/06 06:03:12;;;;;;;;;;;;;;;15.89;67.60;102071.84;4998623;28;20289;-76
2023/06/06 06:05:38;;;;;;;;;;;;;;;16.08;66.60;102067.50;4984893;28;19989;-76
2023/06/06 06:08:06;;;;;;;;;;;;;;;16.24;64.40;102075.53;5000557;28;20290;-76
2023/06/06 06:10:32;;;;;;;;;;;;;;;16.47;64.78;102079.53;5015369;28;20656;-77
2023/06/06 06:12:58;;;;;;;;;;;;;;;16.41;64.84;102073.34;5028898;28;19924;-78
2023/06/06 06:15:24;;;;;;;;;;;;;;;16.58;64.47;102062.97;4992418;28;20011;-76
2023/06/06 06:17:50;;;;;;;;;;;;;;;16.70;63.14;102075.41;4997425;28;19925;-76
2023/06/06 06:20:17;;;;;;;;;;;;;;;16.89;62.29;102069.06;5004751;28;19932;-77
2023/06/06 06:22:43;;;;;;;;;;;;;;;17.03;62.21;102063.84;4999776;28;19931;-76
2023/06/06 06:25:12;;;;;;;;;;;;;;;17.00;61.57;102069.84;5021028;28;20004;-76
2023/06/06 06:27:38;;;;;;;;;;;;;;;17.08;60.20;102066.53;4989443;28;20378;-75
2023/06/06 06:30:04;;;;;;;;;;;;;;;17.29;59.70;102066.38;5012435;28;20155;-76
2023/06/06 06:32:34;;;;;;;;;;;;;;;17.36;59.90;102066.88;4993033;28;20449;-77
2023/06/06 06:35:01;;;;;;;;;;;;;;;17.62;61.50;102070.97;5023927;28;19922;-75
2023/06/06 06:37:29;;;;;;;;;;;;;;;17.72;58.28;102070.91;5010098;28;19921;-76
2023/06/06 06:39:55;;;;;;;;;;;;;;;17.86;55.74;102068.34;4981592;28;19924;-78
2023/06/06 06:42:21;;;;;;;;;;;;;;;18.18;56.55;102073.16;4989633;28;20850;-76
2023/06/06 06:45:01;;;;;;;;;;;;;;;18.21;57.41;102077.97;4973041;28;20138;-75
2023/06/06 06:47:27;;;;;;;;;;;;;;;18.15;57.46;102086.47;4977720;28;20334;-76
2023/06/06 06:49:53;;;;;;;;;;;;;;;18.39;54.15;102078.34;5003262;28;19936;-76
2023/06/06 06:52:18;;;;;;;;;;;;;;;18.31;54.69;102065.41;4985735;28;19924;-76
2023/06/06 06:54:45;;;;;;;;;;;;;;;18.58;53.71;102076.47;5000393;28;20007;-76
2023/06/06 06:57:11;;;;;;;;;;;;;;;18.71;54.43;102083.94;4990889;28;19928;-75
2023/06/06 06:59:37;;;;;;;;;;;;;;;19.20;56.32;102077.25;5008276;28;19921;-76
2023/06/06 07:02:04;;;;;;;;;;;;;;;18.90;55.09;102083.13;5003968;28;19925;-75
2023/06/06 07:04:30;;;;;;;;;;;;;;;19.42;51.87;102078.53;5023496;28;19924;-75
2023/06/06 07:06:56;;;;;;;;;;;;;;;19.23;52.75;102083.97;4996761;28;19917;-76
2023/06/06 07:09:22;;;;;;;;;;;;;;;19.21;48.84;102078.06;5014226;28;19936;-75
2023/06/06 07:11:48;;;;;;;;;;;;;;;19.32;50.71;102085.75;5013452;28;19944;-78
2023/06/06 07:14:14;;;;;;;;;;;;;;;19.69;49.69;102086.78;4981251;28;20051;-76
2023/06/06 07:16:39;;;;;;;;;;;;;;;19.62;52.33;102086.38;4980635;28;19920;-76
2023/06/06 07:19:05;;;;;;;;;;;;;;;19.51;50.11;102082.16;5001383;28;19928;-76
2023/06/06 07:21:30;;;;;;;;;;;;;;;19.26;51.02;102075.25;4993516;28;19921;-77
2023/06/06 07:23:56;;;;;;;;;;;;;;;19.74;52.40;102078.56;5000733;28;19920;-76
2023/06/06 07:26:22;;;;;;;;;;;;;;;20.28;48.78;102079.72;4991516;28;19921;-77
2023/06/06 07:28:48;;;;;;;;;;;;;;;20.37;48.46;102091.50;5017879;28;19940;-75
2023/06/06 07:31:19;;;;;;;;;;;;;;;20.30;46.70;102085.66;5016962;28;19925;-75
2023/06/06 07:33:45;;;;;;;;;;;;;;;20.77;48.45;102080.88;5003935;28;19975;-76
2023/06/06 07:36:11;;;;;;;;;;;;;;;20.21;47.81;102086.66;5013981;28;20541;-76
2023/06/06 07:38:45;;;;;;;;;;;;;;;20.22;47.26;102091.00;4999273;28;20012;-77
2023/06/06 07:41:11;;;;;;;;;;;;;;;20.61;46.51;102076.91;5013739;28;19964;-75
2023/06/06 07:43:37;;;;;;;;;;;;;;;20.92;48.81;102080.53;5012497;28;19917;-76
2023/06/06 07:46:21;;;;;;;;;;;;;;;20.76;47.46;102081.19;4998505;28;20305;-78
2023/06/06 07:48:46;;;;;;;;;;;;;;;20.92;45.53;102077.81;4975506;28;20378;-76
2023/06/06 07:51:12;;;;;;;;;;;;;;;21.23;47.70;102083.38;5011054;28;20011;-77
2023/06/06 07:53:38;;;;;;;;;;;;;;;21.27;45.11;102078.94;5015111;28;19920;-76
2023/06/06 07:56:03;;;;;;;;;;;;;;;21.47;46.27;102076.81;5009139;28;19956;-76
2023/06/06 07:58:43;;;;;;;;;;;;;;;21.23;46.04;102083.38;4996158;28;19917;-75
2023/06/06 08:01:12;;;;;;;;;;;;;;;21.42;46.17;102071.53;5007073;28;19920;-76
2023/06/06 08:03:38;;;;;;;;;;;;;;;21.53;44.89;102065.47;4968858;28;20405;-77
2023/06/06 08:06:03;;;;;;;;;;;;;;;21.76;43.20;102073.63;5010511;28;19925;-76
2023/06/06 08:08:29;;;;;;;;;;;;;;;21.98;43.02;102068.13;4995119;28;19932;-75
2023/06/06 08:10:55;;;;;;;;;;;;;;;21.68;44.56;102074.41;5007481;28;21553;-76
2023/06/06 08:13:20;;;;;;;;;;;;;;;21.92;43.82;102065.84;5001975;28;19982;-77
2023/06/06 08:15:46;;;;;;;;;;;;;;;21.94;43.57;102066.31;4985999;28;20382;-76
2023/06/06 08:18:15;;;;;;;;;;;;;;;22.17;42.79;102064.38;4993056;28;19971;-75
2023/06/06 08:20:40;;;;;;;;;;;;;;;22.75;43.96;102065.94;4992750;28;19921;-75
2023/06/06 08:23:06;;;;;;;;;;;;;;;22.51;41.21;102067.19;4992406;28;19917;-76
2023/06/06 08:25:33;;;;;;;;;;;;;;;22.57;42.38;102068.66;4990074;28;19929;-76
2023/06/06 08:27:59;;;;;;;;;;;;;;;22.33;44.03;102065.53;4994679;28;19975;-77
2023/06/06 08:30:25;;;;;;;;;;;;;;;22.17;43.45;102067.09;5001010;28;20380;-76
2023/06/06 08:32:50;;;;;;;;;;;;;;;22.61;47.26;102077.78;5005240;28;19936;-76
2023/06/06 08:35:19;;;;;;;;;;;;;;;22.98;39.38;102067.44;5025701;28;19927;-76
2023/06/06 08:37:45;;;;;;;;;;;;;;;22.95;39.83;102064.53;4969205;28;20018;-75
2023/06/06 08:40:11;;;;;;;;;;;;;;;23.22;41.87;102063.38;5009819;28;19925;-75
2023/06/06 08:42:40;;;;;;;;;;;;;;;23.27;42.03;102065.97;4987677;28;19924;-77
2023/06/06 08:45:08;;;;;;;;;;;;;;;23.30;40.87;102055.19;5015427;28;19929;-78
2023/06/06 08:47:36;;;;;;;;;;;;;;;23.45;38.89;102053.88;4980025;28;19983;-76
2023/06/06 08:50:04;;;;;;;;;;;;;;;23.62;39.50;102053.84;5004482;28;20434;-78
2023/06/06 08:52:32;;;;;;;;;;;;;;;23.88;40.31;102052.94;4973419;28;19925;-77
2023/06/06 08:54:58;;;;;;;;;;;;;;;23.45;39.16;102051.13;5005735;28;19925;-77
2023/06/06 08:57:25;;;;;;;;;;;;;;;23.25;39.04;102063.56;5004339;28;19921;-78
2023/06/06 08:59:51;;;;;;;;;;;;;;;23.84;39.67;102054.72;4997131;28;19925;-79
2023/06/06 09:02:17;;;;;;;;;;;;;;;23.61;39.36;102060.44;5006555;28;19921;-77
2023/06/06 09:04:43;;;;;;;;;;;;;;;23.56;39.72;102059.78;4999082;28;20357;-78
2023/06/06 09:07:12;;;;;;;;;;;;;;;24.20;35.75;102049.59;5008628;28;19921;-76
2023/06/06 09:09:40;;;;;;;;;;;;;;;23.96;37.57;102061.13;5009769;28;19925;-76
2023/06/06 09:12:09;;;;;;;;;;;;;;;24.12;37.45;102064.13;4994433;28;19921;-76
2023/06/06 09:14:35;;;;;;;;;;;;;;;24.17;38.29;102061.19;5000454;28;19925;-76
2023/06/06 09:17:01;;;;;;;;;;;;;;;24.54;35.76;102058.75;4994610;28;19928;-77
2023/06/06 09:19:27;;;;;;;;;;;;;;;24.15;36.70;102052.50;5008161;28;19918;-77
2023/06/06 09:21:53;;;;;;;;;;;;;;;23.95;38.21;102058.72;4988377;28;19921;-75
2023/06/06 09:24:18;;;;;;;;;;;;;;;24.06;38.97;102054.50;5005816;28;19927;-76
2023/06/06 09:26:44;;;;;;;;;;;;;;;24.28;37.99;102055.34;4994616;28;19921;-75
2023/06/06 09:29:12;;;;;;;;;;;;;;;24.42;36.07;102056.72;4980541;28;19928;-76
2023/06/06 09:31:38;;;;;;;;;;;;;;;24.64;35.96;102057.53;4996385;28;19964;-76
2023/06/06 09:34:05;;;;;;;;;;;;;;;24.73;37.44;102050.06;5022378;28;19925;-77
2023/06/06 09:36:33;;;;;;;;;;;;;;;24.45;36.28;102050.59;5008377;28;20452;-78
2023/06/06 09:39:13;;;;;;;;;;;;;;;24.83;37.70;102054.34;5011698;28;19921;-76
2023/06/06 09:41:40;;;;;;;;;;;;;;;25.22;35.31;102051.13;4997085;28;20416;-77
2023/06/06 09:44:16;;;;;;;;;;;;;;;25.02;35.56;102043.69;5014204;28;19928;-75
2023/06/06 09:46:41;;;;;;;;;;;;;;;25.09;35.05;102041.25;5029014;28;20016;-75
2023/06/06 09:49:09;;;;;;;;;;;;;;;25.00;35.71;102037.75;4998331;28;19932;-76
2023/06/06 09:51:35;;;;;;;;;;;;;;;25.56;35.07;102032.69;5015303;28;19922;-75
2023/06/06 09:54:03;;;;;;;;;;;;;;;25.30;35.20;102044.75;5018985;28;20428;-77
2023/06/06 09:56:30;;;;;;;;;;;;;;;25.44;33.61;102040.88;5017919;28;20321;-76
2023/06/06 09:58:56;;;;;;;;;;;;;;;25.40;38.42;102039.97;5009854;28;20352;-75
2023/06/06 10:01:28;;;;;;;;;;;;;;;25.39;34.85;102033.66;4993806;28;19925;-77
2023/06/06 10:03:57;;;;;;;;;;;;;;;25.35;34.05;102035.50;4995455;28;19988;-76
2023/06/06 10:06:24;;;;;;;;;;;;;;;25.70;35.21;102035.91;4991591;28;20012;-75
2023/06/06 10:08:53;;;;;;;;;;;;;;;25.83;35.15;102032.06;5009031;28;20298;-77
2023/06/06 10:11:21;;;;;;;;;;;;;;;25.30;35.13;102036.50;5032728;28;20287;-78
2023/06/06 10:13:50;;;;;;;;;;;;;;;25.77;35.02;102036.19;5016719;28;19959;-76
2023/06/06 10:16:16;;;;;;;;;;;;;;;25.56;34.57;102021.72;4998900;28;20318;-76
2023/06/06 10:18:44;;;;;;;;;;;;;;;25.51;33.64;102027.41;4995900;28;19928;-75
2023/06/06 10:21:13;;;;;;;;;;;;;;;25.80;33.49;102030.00;4994478;28;19921;-77
2023/06/06 10:23:39;;;;;;;;;;;;;;;25.92;33.86;102028.41;4977461;28;19928;-77
2023/06/06 10:26:08;;;;;;;;;;;;;;;25.76;33.49;102018.13;5010988;28;19921;-77
2023/06/06 10:28:37;;;;;;;;;;;;;;;26.26;35.10;102025.19;5023569;28;19984;-75
2023/06/06 10:31:19;;;;;;;;;;;;;;;25.97;34.04;102025.44;5025110;28;20015;-78
2023/06/06 10:33:51;;;;;;;;;;;;;;;25.62;32.21;102023.09;4997195;28;20342;-75
2023/06/06 10:36:17;;;;;;;;;;;;;;;25.83;32.05;102023.84;5013932;28;19992;-75
2023/06/06 10:39:03;;;;;;;;;;;;;;;26.46;35.12;102022.66;5012682;28;19921;-75
2023/06/06 10:41:40;;;;;;;;;;;;;;;26.62;33.68;102013.34;5009819;28;19976;-76
2023/06/06 10:44:06;;;;;;;;;;;;;;;26.63;33.32;102020.44;4990606;28;19925;-76
2023/06/06 10:46:33;;;;;;;;;;;;;;;27.22;33.86;102018.94;4983852;28;19929;-76
2023/06/06 10:49:00;;;;;;;;;;;;;;;26.57;32.85;102027.34;4993441;28;19929;-75
2023/06/06 10:51:27;;;;;;;;;;;;;;;26.01;31.35;102009.88;4995609;28;20315;-75
2023/06/06 10:54:11;;;;;;;;;;;;;;;25.96;31.89;102019.16;4992944;28;19928;-75
2023/06/06 10:56:42;;;;;;;;;;;;;;;25.76;34.50;102022.81;4993618;28;20012;-77
2023/06/06 10:59:09;;;;;;;;;;;;;;;26.08;31.63;102021.09;5029763;28;19921;-77
2023/06/06 11:01:36;;;;;;;;;;;;;;;26.25;31.19;102018.09;4993098;28;19928;-76
2023/06/06 11:04:15;;;;;;;;;;;;;;;26.43;31.07;102009.63;4996148;28;19921;-76
2023/06/06 11:06:42;;;;;;;;;;;;;;;26.73;31.28;102001.84;4995516;28;19925;-76
2023/06/06 11:09:21;;;;;;;;;;;;;;;26.59;32.20;102014.03;5001581;28;19995;-77
2023/06/06 11:11:47;;;;;;;;;;;;;;;26.66;32.51;102010.69;4986473;28;19997;-76
2023/06/06 11:14:12;;;;;;;;;;;;;;;26.83;31.04;102001.38;4995381;28;19971;-77
2023/06/06 11:16:38;;;;;;;;;;;;;;;26.64;30.75;102004.75;5009102;28;19928;-76
2023/06/06 11:19:08;;;;;;;;;;;;;;;27.04;30.50;102001.16;5025591;28;19922;-76
2023/06/06 11:21:37;;;;;;;;;;;;;;;26.86;31.55;101995.97;5022520;28;20366;-77
2023/06/06 11:24:04;;;;;;;;;;;;;;;26.86;31.09;101995.16;5007258;28;19936;-77
2023/06/06 11:26:30;;;;;;;;;;;;;;;26.88;30.75;102003.84;4996932;28;19928;-77
2023/06/06 11:28:56;;;;;;;;;;;;;;;26.90;30.52;101996.88;5029947;28;19925;-75
2023/06/06 11:31:23;;;;;;;;;;;;;;;26.73;30.70;101991.66;4987207;28;19992;-75
2023/06/06 11:33:49;;;;;;;;;;;;;;;26.87;30.07;101986.56;4997722;28;19927;-76
2023/06/06 11:36:15;;;;;;;;;;;;;;;27.17;29.59;101983.47;5009274;28;20027;-76
2023/06/06 11:38:43;;;;;;;;;;;;;;;28.00;29.74;101990.66;4994840;28;19956;-76
2023/06/06 11:41:09;;;;;;;;;;;;;;;27.24;31.07;101989.16;5010968;28;19963;-75
2023/06/06 11:43:35;;;;;;;;;;;;;;;27.68;30.08;101991.84;4975296;28;20381;-75
2023/06/06 11:46:04;;;;;;;;;;;;;;;27.37;29.22;101979.69;5008954;28;20020;-75
2023/06/06 11:48:30;;;;;;;;;;;;;;;28.21;30.47;101981.28;4979328;28;19937;-76
2023/06/06 11:50:55;;;;;;;;;;;;;;;27.94;29.11;101975.56;5003271;28;20000;-76
2023/06/06 11:53:32;;;;;;;;;;;;;;;27.88;28.75;101974.25;5029415;28;19994;-76
2023/06/06 11:55:58;;;;;;;;;;;;;;;27.64;32.45;101969.72;5003832;28;19918;-75
2023/06/06 11:58:24;;;;;;;;;;;;;;;27.62;28.92;101971.22;4977924;28;19925;-74
2023/06/06 12:00:56;;;;;;;;;;;;;;;28.06;28.26;101973.88;5017283;28;19921;-75
2023/06/06 12:03:22;;;;;;;;;;;;;;;29.31;28.64;101963.38;4996271;28;19930;-75
2023/06/06 12:06:01;;;;;;;;;;;;;;;29.07;29.08;101968.09;5011991;28;19947;-78
2023/06/06 12:08:27;;;;;;;;;;;;;;;28.48;26.62;101974.81;5014310;28;19925;-79
2023/06/06 12:10:53;;;;;;;;;;;;;;;28.34;27.37;101969.00;4995344;28;20374;-75
2023/06/06 12:13:34;;;;;;;;;;;;;;;28.70;27.00;101970.50;5019503;28;19921;-77
2023/06/06 12:16:00;;;;;;;;;;;;;;;29.08;29.24;101969.69;4991577;28;20024;-78
2023/06/06 12:18:26;;;;;;;;;;;;;;;28.83;28.45;101968.41;5007937;28;20014;-78
2023/06/06 12:20:53;;;;;;;;;;;;;;;28.91;27.55;101961.88;4993058;28;19917;-77
2023/06/06 12:23:28;;;;;;;;;;;;;;;29.65;28.75;101961.59;4989712;28;19917;-75
2023/06/06 12:25:57;;;;;;;;;;;;;;;28.99;27.38;101971.06;5024326;28;19932;-74
2023/06/06 12:28:24;;;;;;;;;;;;;;;28.49;28.52;101968.13;4994303;28;19955;-74
2023/06/06 12:30:51;;;;;;;;;;;;;;;29.32;27.90;101963.00;5009266;28;19922;-75
2023/06/06 12:33:21;;;;;;;;;;;;;;;30.27;26.71;101955.78;4999247;28;20448;-76
2023/06/06 12:35:48;;;;;;;;;;;;;;;30.05;27.63;101958.22;4973659;28;19925;-75
2023/06/06 12:38:21;;;;;;;;;;;;;;;30.58;26.54;101963.66;5001993;28;19925;-76